Augusto Severo Airport
SBNT : rendu visible

Aérodrome :











RETROUVEZ-NOUS SUR...

 
LOGIN :

S'inscrire | Disclaimer

   EN    FR    IT 

 









Légende :    VFR   VFR Marginal   IFR   IFR Intensif   IFR Très Intensif
Visi : 
Plafond : 
>= 8 km
>= 3000ft
5 à 8 km
1000 à 3000 ft
1500m à 5 km
500 à 1000 ft
800 à 1500m
200 à 500 ft
< 800m
< 200 ft
Symboles :   Orages  Brouillard  Fortes neiges  Fortes précipitations  Vent > 20 kt






- Altitude de l'aérodrome : 169 ft
- Code IATA : NAT


SBNT - Augusto Severo

METARs EXPIRÉS :
  • 011800Z 10008KT 070V140 9999 SCT023 30/23 Q1012
  • 011700Z 11010KT 9999 SCT023 30/24 Q1012

TAF TAF SBNT
Valide du 01 à 18h jusqu'au 02 à 06h UTC


011500Z 0118/0206 11010KT 9999 SCT023 TX33/0118Z TN26/0205Z
BECMG 0202/0204 14004KT RMK PDV
FIR SBRE / Amérique du Sud



MET'MAP, la Météo Aéronautique d'un coup d'oeil ! - Copyright ORBIFLY Décembre 2007 - Disclaimer

ORBIFLY MET'MAP TEAM :

Programmation & Développement : Alexandra Zaïnal
Sur une idée originale de : Baudouin d'Aumeries
Assistance à la programmation : Marc-Olivier Méhu
Soutien technique & logistique : Manuel Goepfert

Contact : metmap@orbifly.com




SOURCES & CREDITS :

   NOAA       Earth
Advisory